sensor_id;sensor_type;location;lat;lon;timestamp;P1;durP1;ratioP1;P2;durP2;ratioP2
58101;SDS011;52034;51.926;6.320;2023-02-15T00:00:45;38.97;;;28.53;;
58101;SDS011;52034;51.926;6.320;2023-02-15T00:01:46;40.13;;;29.77;;
58101;SDS011;52034;51.926;6.320;2023-02-15T00:02:46;46.88;;;32.83;;
58101;SDS011;52034;51.926;6.320;2023-02-15T00:03:47;43.77;;;31.67;;
58101;SDS011;52034;51.926;6.320;2023-02-15T00:04:48;48.05;;;33.95;;
58101;SDS011;52034;51.926;6.320;2023-02-15T00:05:50;45.47;;;32.30;;
58101;SDS011;52034;51.926;6.320;2023-02-15T00:06:50;48.47;;;32.70;;
58101;SDS011;52034;51.926;6.320;2023-02-15T00:07:51;54.17;;;34.90;;
58101;SDS011;52034;51.926;6.320;2023-02-15T00:08:51;55.40;;;35.00;;
58101;SDS011;52034;51.926;6.320;2023-02-15T00:09:51;49.70;;;34.30;;
58101;SDS011;52034;51.926;6.320;2023-02-15T00:10:52;52.23;;;34.70;;
58101;SDS011;52034;51.926;6.320;2023-02-15T00:11:52;57.37;;;37.03;;
58101;SDS011;52034;51.926;6.320;2023-02-15T00:12:52;54.90;;;35.43;;
58101;SDS011;52034;51.926;6.320;2023-02-15T00:13:53;64.13;;;40.27;;
58101;SDS011;52034;51.926;6.320;2023-02-15T00:14:53;54.10;;;37.40;;
58101;SDS011;52034;51.926;6.320;2023-02-15T00:15:53;50.80;;;35.60;;
58101;SDS011;52034;51.926;6.320;2023-02-15T00:16:54;55.77;;;37.10;;
58101;SDS011;52034;51.926;6.320;2023-02-15T00:17:56;51.42;;;35.47;;
58101;SDS011;52034;51.926;6.320;2023-02-15T00:18:57;54.92;;;36.70;;
58101;SDS011;52034;51.926;6.320;2023-02-15T00:19:57;48.37;;;33.23;;
58101;SDS011;52034;51.926;6.320;2023-02-15T00:20:57;43.93;;;30.40;;
58101;SDS011;52034;51.926;6.320;2023-02-15T00:21:58;44.83;;;31.50;;
58101;SDS011;52034;51.926;6.320;2023-02-15T00:22:59;39.57;;;29.97;;
58101;SDS011;52034;51.926;6.320;2023-02-15T00:24:00;40.58;;;28.67;;
58101;SDS011;52034;51.926;6.320;2023-02-15T00:25:02;37.50;;;28.17;;
58101;SDS011;52034;51.926;6.320;2023-02-15T00:26:09;39.70;;;29.47;;
58101;SDS011;52034;51.926;6.320;2023-02-15T00:27:11;40.00;;;28.77;;
58101;SDS011;52034;51.926;6.320;2023-02-15T00:28:13;42.08;;;29.95;;
58101;SDS011;52034;51.926;6.320;2023-02-15T00:29:13;39.37;;;29.63;;
58101;SDS011;52034;51.926;6.320;2023-02-15T00:30:15;42.08;;;29.63;;
58101;SDS011;52034;51.926;6.320;2023-02-15T00:31:16;45.80;;;31.87;;
58101;SDS011;52034;51.926;6.320;2023-02-15T00:32:16;48.67;;;32.23;;
58101;SDS011;52034;51.926;6.320;2023-02-15T00:33:16;47.30;;;31.73;;
58101;SDS011;52034;51.926;6.320;2023-02-15T00:34:20;47.27;;;32.60;;
58101;SDS011;52034;51.926;6.320;2023-02-15T00:35:22;45.13;;;32.33;;
58101;SDS011;52034;51.926;6.320;2023-02-15T00:36:22;49.40;;;34.07;;
58101;SDS011;52034;51.926;6.320;2023-02-15T00:37:22;47.47;;;32.37;;
58101;SDS011;52034;51.926;6.320;2023-02-15T00:38:23;48.27;;;33.20;;
58101;SDS011;52034;51.926;6.320;2023-02-15T00:39:23;49.50;;;33.33;;
58101;SDS011;52034;51.926;6.320;2023-02-15T00:40:24;48.58;;;33.70;;
58101;SDS011;52034;51.926;6.320;2023-02-15T00:41:24;53.23;;;35.50;;
58101;SDS011;52034;51.926;6.320;2023-02-15T00:42:25;49.97;;;34.03;;
58101;SDS011;52034;51.926;6.320;2023-02-15T00:43:26;51.70;;;34.73;;
58101;SDS011;52034;51.926;6.320;2023-02-15T00:46:30;56.15;;;35.65;;
58101;SDS011;52034;51.926;6.320;2023-02-15T00:47:31;53.23;;;35.07;;
58101;SDS011;52034;51.926;6.320;2023-02-15T00:48:32;50.90;;;35.50;;
58101;SDS011;52034;51.926;6.320;2023-02-15T00:49:32;49.97;;;34.07;;
58101;SDS011;52034;51.926;6.320;2023-02-15T00:50:32;50.10;;;34.80;;
58101;SDS011;52034;51.926;6.320;2023-02-15T00:51:33;46.00;;;33.03;;
58101;SDS011;52034;51.926;6.320;2023-02-15T00:52:33;54.17;;;36.70;;
58101;SDS011;52034;51.926;6.320;2023-02-15T00:53:33;51.10;;;34.67;;
58101;SDS011;52034;51.926;6.320;2023-02-15T00:54:34;53.67;;;33.70;;
58101;SDS011;52034;51.926;6.320;2023-02-15T00:55:34;50.60;;;33.90;;
58101;SDS011;52034;51.926;6.320;2023-02-15T00:56:35;51.83;;;33.83;;
58101;SDS011;52034;51.926;6.320;2023-02-15T00:57:35;51.03;;;33.93;;
58101;SDS011;52034;51.926;6.320;2023-02-15T00:58:36;48.10;;;33.37;;
58101;SDS011;52034;51.926;6.320;2023-02-15T00:59:36;50.27;;;33.87;;
58101;SDS011;52034;51.926;6.320;2023-02-15T01:00:37;51.37;;;34.00;;
58101;SDS011;52034;51.926;6.320;2023-02-15T01:01:38;52.58;;;35.58;;
58101;SDS011;52034;51.926;6.320;2023-02-15T01:02:38;52.63;;;34.70;;
58101;SDS011;52034;51.926;6.320;2023-02-15T01:03:39;56.80;;;35.37;;
58101;SDS011;52034;51.926;6.320;2023-02-15T01:04:42;59.83;;;37.65;;
58101;SDS011;52034;51.926;6.320;2023-02-15T01:05:43;52.27;;;34.03;;
58101;SDS011;52034;51.926;6.320;2023-02-15T01:06:43;56.37;;;36.63;;
58101;SDS011;52034;51.926;6.320;2023-02-15T01:07:44;49.63;;;33.03;;
58101;SDS011;52034;51.926;6.320;2023-02-15T01:08:45;50.23;;;32.97;;
58101;SDS011;52034;51.926;6.320;2023-02-15T01:09:46;49.20;;;34.05;;
58101;SDS011;52034;51.926;6.320;2023-02-15T01:10:46;58.30;;;35.90;;
58101;SDS011;52034;51.926;6.320;2023-02-15T01:11:47;54.10;;;34.40;;
58101;SDS011;52034;51.926;6.320;2023-02-15T01:12:47;55.20;;;35.90;;
58101;SDS011;52034;51.926;6.320;2023-02-15T01:13:48;52.73;;;34.47;;
58101;SDS011;52034;51.926;6.320;2023-02-15T01:14:49;52.08;;;33.47;;
58101;SDS011;52034;51.926;6.320;2023-02-15T01:15:53;48.00;;;33.10;;
58101;SDS011;52034;51.926;6.320;2023-02-15T01:16:54;52.42;;;33.95;;
58101;SDS011;52034;51.926;6.320;2023-02-15T01:17:55;47.90;;;33.17;;
58101;SDS011;52034;51.926;6.320;2023-02-15T01:18:55;55.03;;;35.37;;
58101;SDS011;52034;51.926;6.320;2023-02-15T01:19:56;50.80;;;34.00;;
58101;SDS011;52034;51.926;6.320;2023-02-15T01:20:56;50.63;;;33.30;;
58101;SDS011;52034;51.926;6.320;2023-02-15T01:21:57;51.75;;;33.47;;
58101;SDS011;52034;51.926;6.320;2023-02-15T01:22:57;51.40;;;35.53;;
58101;SDS011;52034;51.926;6.320;2023-02-15T01:23:57;51.77;;;34.07;;
58101;SDS011;52034;51.926;6.320;2023-02-15T01:24:59;51.88;;;34.78;;
58101;SDS011;52034;51.926;6.320;2023-02-15T01:26:01;55.67;;;35.27;;
58101;SDS011;52034;51.926;6.320;2023-02-15T01:27:02;53.15;;;35.70;;
58101;SDS011;52034;51.926;6.320;2023-02-15T01:28:02;54.00;;;35.80;;
58101;SDS011;52034;51.926;6.320;2023-02-15T01:29:03;52.60;;;33.15;;
58101;SDS011;52034;51.926;6.320;2023-02-15T01:30:05;51.80;;;34.15;;
58101;SDS011;52034;51.926;6.320;2023-02-15T01:31:10;54.80;;;34.90;;
58101;SDS011;52034;51.926;6.320;2023-02-15T01:32:20;51.95;;;33.55;;
58101;SDS011;52034;51.926;6.320;2023-02-15T01:33:20;52.53;;;32.30;;
58101;SDS011;52034;51.926;6.320;2023-02-15T01:34:21;46.10;;;30.13;;
58101;SDS011;52034;51.926;6.320;2023-02-15T01:35:21;49.17;;;32.67;;
58101;SDS011;52034;51.926;6.320;2023-02-15T01:36:21;46.00;;;30.30;;
58101;SDS011;52034;51.926;6.320;2023-02-15T01:37:22;49.13;;;31.93;;
58101;SDS011;52034;51.926;6.320;2023-02-15T01:38:22;53.43;;;35.23;;
58101;SDS011;52034;51.926;6.320;2023-02-15T01:39:23;51.30;;;33.03;;
58101;SDS011;52034;51.926;6.320;2023-02-15T01:41:25;51.85;;;33.30;;
58101;SDS011;52034;51.926;6.320;2023-02-15T01:42:27;51.15;;;33.58;;
58101;SDS011;52034;51.926;6.320;2023-02-15T01:43:42;52.05;;;34.53;;
58101;SDS011;52034;51.926;6.320;2023-02-15T01:44:45;49.38;;;32.67;;
58101;SDS011;52034;51.926;6.320;2023-02-15T01:45:47;53.75;;;32.90;;
58101;SDS011;52034;51.926;6.320;2023-02-15T01:46:50;48.10;;;32.08;;
58101;SDS011;52034;51.926;6.320;2023-02-15T01:47:57;50.30;;;33.53;;
58101;SDS011;52034;51.926;6.320;2023-02-15T01:49:06;48.22;;;31.02;;
58101;SDS011;52034;51.926;6.320;2023-02-15T01:50:12;46.22;;;31.92;;
58101;SDS011;52034;51.926;6.320;2023-02-15T01:51:16;48.83;;;33.38;;
58101;SDS011;52034;51.926;6.320;2023-02-15T01:52:19;47.28;;;31.42;;
58101;SDS011;52034;51.926;6.320;2023-02-15T01:54:31;51.38;;;32.30;;
58101;SDS011;52034;51.926;6.320;2023-02-15T01:55:36;48.58;;;33.20;;
58101;SDS011;52034;51.926;6.320;2023-02-15T01:56:40;51.00;;;33.50;;
58101;SDS011;52034;51.926;6.320;2023-02-15T01:57:43;53.60;;;34.65;;
58101;SDS011;52034;51.926;6.320;2023-02-15T01:58:43;54.47;;;34.55;;
58101;SDS011;52034;51.926;6.320;2023-02-15T02:00:49;49.28;;;34.80;;
58101;SDS011;52034;51.926;6.320;2023-02-15T02:01:50;56.60;;;38.07;;
58101;SDS011;52034;51.926;6.320;2023-02-15T02:02:53;56.13;;;37.55;;
58101;SDS011;52034;51.926;6.320;2023-02-15T02:04:02;52.92;;;36.50;;
58101;SDS011;52034;51.926;6.320;2023-02-15T02:05:09;55.33;;;36.40;;
58101;SDS011;52034;51.926;6.320;2023-02-15T02:06:09;55.77;;;36.63;;
58101;SDS011;52034;51.926;6.320;2023-02-15T02:07:12;58.78;;;37.50;;
58101;SDS011;52034;51.926;6.320;2023-02-15T02:08:15;60.47;;;38.33;;
58101;SDS011;52034;51.926;6.320;2023-02-15T02:09:16;57.70;;;36.77;;
58101;SDS011;52034;51.926;6.320;2023-02-15T02:10:17;57.03;;;37.53;;
58101;SDS011;52034;51.926;6.320;2023-02-15T02:11:20;57.10;;;37.00;;
58101;SDS011;52034;51.926;6.320;2023-02-15T02:12:20;51.53;;;35.33;;
58101;SDS011;52034;51.926;6.320;2023-02-15T02:13:22;55.83;;;36.97;;
58101;SDS011;52034;51.926;6.320;2023-02-15T02:14:22;60.40;;;39.20;;
58101;SDS011;52034;51.926;6.320;2023-02-15T02:15:58;59.22;;;38.28;;
58101;SDS011;52034;51.926;6.320;2023-02-15T02:17:05;57.67;;;36.20;;
58101;SDS011;52034;51.926;6.320;2023-02-15T02:20:41;51.42;;;33.67;;
58101;SDS011;52034;51.926;6.320;2023-02-15T02:23:19;45.20;;;31.60;;
58101;SDS011;52034;51.926;6.320;2023-02-15T02:26:14;52.45;;;34.08;;
58101;SDS011;52034;51.926;6.320;2023-02-15T02:27:39;50.10;;;32.22;;
58101;SDS011;52034;51.926;6.320;2023-02-15T02:28:59;55.95;;;35.28;;
58101;SDS011;52034;51.926;6.320;2023-02-15T02:30:20;49.72;;;33.95;;
58101;SDS011;52034;51.926;6.320;2023-02-15T02:31:49;50.33;;;33.03;;
58101;SDS011;52034;51.926;6.320;2023-02-15T02:34:39;62.10;;;38.75;;
58101;SDS011;52034;51.926;6.320;2023-02-15T02:35:47;71.68;;;41.42;;
58101;SDS011;52034;51.926;6.320;2023-02-15T02:42:37;74.88;;;43.85;;
58101;SDS011;52034;51.926;6.320;2023-02-15T02:45:08;76.82;;;43.83;;
58101;SDS011;52034;51.926;6.320;2023-02-15T02:46:15;78.32;;;43.70;;
58101;SDS011;52034;51.926;6.320;2023-02-15T02:48:27;69.78;;;41.75;;
58101;SDS011;52034;51.926;6.320;2023-02-15T02:49:33;77.47;;;44.15;;
58101;SDS011;52034;51.926;6.320;2023-02-15T02:50:38;52.33;;;35.92;;
58101;SDS011;52034;51.926;6.320;2023-02-15T02:51:39;53.42;;;35.13;;
58101;SDS011;52034;51.926;6.320;2023-02-15T02:52:46;64.10;;;39.53;;
58101;SDS011;52034;51.926;6.320;2023-02-15T02:53:49;67.18;;;41.63;;
58101;SDS011;52034;51.926;6.320;2023-02-15T02:54:53;69.97;;;41.92;;
58101;SDS011;52034;51.926;6.320;2023-02-15T02:55:58;56.88;;;37.88;;
58101;SDS011;52034;51.926;6.320;2023-02-15T02:57:03;56.05;;;37.13;;
58101;SDS011;52034;51.926;6.320;2023-02-15T02:59:17;59.92;;;38.58;;
58101;SDS011;52034;51.926;6.320;2023-02-15T03:00:22;57.80;;;38.42;;
58101;SDS011;52034;51.926;6.320;2023-02-15T03:01:33;60.05;;;38.45;;
58101;SDS011;52034;51.926;6.320;2023-02-15T03:02:40;56.58;;;36.90;;
58101;SDS011;52034;51.926;6.320;2023-02-15T03:03:44;57.22;;;37.80;;
58101;SDS011;52034;51.926;6.320;2023-02-15T03:05:09;57.33;;;37.80;;
58101;SDS011;52034;51.926;6.320;2023-02-15T03:06:22;60.47;;;37.50;;
58101;SDS011;52034;51.926;6.320;2023-02-15T03:07:28;57.53;;;38.47;;
58101;SDS011;52034;51.926;6.320;2023-02-15T03:08:34;60.80;;;39.33;;
58101;SDS011;52034;51.926;6.320;2023-02-15T03:09:38;58.75;;;38.95;;
58101;SDS011;52034;51.926;6.320;2023-02-15T03:10:42;59.20;;;38.38;;
58101;SDS011;52034;51.926;6.320;2023-02-15T03:11:43;57.60;;;37.60;;
58101;SDS011;52034;51.926;6.320;2023-02-15T03:12:44;56.67;;;36.63;;
58101;SDS011;52034;51.926;6.320;2023-02-15T03:13:45;63.60;;;39.37;;
58101;SDS011;52034;51.926;6.320;2023-02-15T03:14:49;56.95;;;37.33;;
58101;SDS011;52034;51.926;6.320;2023-02-15T03:15:53;53.58;;;36.05;;
58101;SDS011;52034;51.926;6.320;2023-02-15T03:17:13;62.67;;;38.83;;
58101;SDS011;52034;51.926;6.320;2023-02-15T03:18:16;62.40;;;37.92;;
58101;SDS011;52034;51.926;6.320;2023-02-15T03:19:22;58.28;;;36.75;;
58101;SDS011;52034;51.926;6.320;2023-02-15T03:20:27;56.88;;;36.72;;
58101;SDS011;52034;51.926;6.320;2023-02-15T03:21:34;57.13;;;36.20;;
58101;SDS011;52034;51.926;6.320;2023-02-15T03:22:43;56.97;;;36.38;;
58101;SDS011;52034;51.926;6.320;2023-02-15T03:23:52;64.25;;;38.53;;
58101;SDS011;52034;51.926;6.320;2023-02-15T03:25:02;69.40;;;41.53;;
58101;SDS011;52034;51.926;6.320;2023-02-15T03:26:06;72.38;;;43.60;;
58101;SDS011;52034;51.926;6.320;2023-02-15T03:27:14;67.75;;;40.92;;
58101;SDS011;52034;51.926;6.320;2023-02-15T03:28:20;60.03;;;39.00;;
58101;SDS011;52034;51.926;6.320;2023-02-15T03:29:28;56.25;;;38.42;;
58101;SDS011;52034;51.926;6.320;2023-02-15T03:30:30;59.38;;;37.63;;
58101;SDS011;52034;51.926;6.320;2023-02-15T03:31:35;61.72;;;38.88;;
58101;SDS011;52034;51.926;6.320;2023-02-15T03:32:39;59.17;;;37.97;;
58101;SDS011;52034;51.926;6.320;2023-02-15T03:33:44;60.50;;;38.75;;
58101;SDS011;52034;51.926;6.320;2023-02-15T03:34:50;55.60;;;37.15;;
58101;SDS011;52034;51.926;6.320;2023-02-15T03:35:53;52.00;;;36.37;;
58101;SDS011;52034;51.926;6.320;2023-02-15T03:37:03;57.55;;;36.10;;
58101;SDS011;52034;51.926;6.320;2023-02-15T03:38:10;54.72;;;36.10;;
58101;SDS011;52034;51.926;6.320;2023-02-15T03:40:35;50.88;;;35.88;;
58101;SDS011;52034;51.926;6.320;2023-02-15T03:43:23;54.30;;;36.63;;
58101;SDS011;52034;51.926;6.320;2023-02-15T03:44:31;54.75;;;37.05;;
58101;SDS011;52034;51.926;6.320;2023-02-15T03:45:33;51.28;;;35.65;;
58101;SDS011;52034;51.926;6.320;2023-02-15T03:48:03;57.20;;;36.42;;
58101;SDS011;52034;51.926;6.320;2023-02-15T03:49:10;55.55;;;37.42;;
58101;SDS011;52034;51.926;6.320;2023-02-15T03:51:48;59.13;;;36.63;;
58101;SDS011;52034;51.926;6.320;2023-02-15T03:52:51;53.60;;;35.45;;
58101;SDS011;52034;51.926;6.320;2023-02-15T03:53:52;70.05;;;41.20;;
58101;SDS011;52034;51.926;6.320;2023-02-15T03:54:54;66.10;;;39.45;;
58101;SDS011;52034;51.926;6.320;2023-02-15T03:55:55;63.60;;;38.20;;
58101;SDS011;52034;51.926;6.320;2023-02-15T03:56:56;52.03;;;36.27;;
58101;SDS011;52034;51.926;6.320;2023-02-15T03:58:17;48.47;;;33.28;;
58101;SDS011;52034;51.926;6.320;2023-02-15T03:59:36;49.08;;;34.40;;
58101;SDS011;52034;51.926;6.320;2023-02-15T04:00:57;62.50;;;37.60;;
58101;SDS011;52034;51.926;6.320;2023-02-15T04:02:22;47.28;;;31.52;;
58101;SDS011;52034;51.926;6.320;2023-02-15T04:03:33;47.70;;;32.20;;
58101;SDS011;52034;51.926;6.320;2023-02-15T04:04:42;55.38;;;35.65;;
58101;SDS011;52034;51.926;6.320;2023-02-15T04:05:44;47.75;;;31.88;;
58101;SDS011;52034;51.926;6.320;2023-02-15T04:06:45;67.73;;;34.47;;
58101;SDS011;52034;51.926;6.320;2023-02-15T04:07:45;58.03;;;32.87;;
58101;SDS011;52034;51.926;6.320;2023-02-15T04:08:45;94.70;;;34.93;;
58101;SDS011;52034;51.926;6.320;2023-02-15T04:10:04;79.68;;;32.28;;
58101;SDS011;52034;51.926;6.320;2023-02-15T04:11:24;67.88;;;30.17;;
58101;SDS011;52034;51.926;6.320;2023-02-15T04:12:24;49.00;;;29.60;;
58101;SDS011;52034;51.926;6.320;2023-02-15T04:13:30;42.93;;;28.83;;
58101;SDS011;52034;51.926;6.320;2023-02-15T04:14:31;42.28;;;30.23;;
58101;SDS011;52034;51.926;6.320;2023-02-15T04:15:50;50.88;;;32.78;;
58101;SDS011;52034;51.926;6.320;2023-02-15T04:17:05;50.72;;;32.28;;
58101;SDS011;52034;51.926;6.320;2023-02-15T04:18:06;45.78;;;31.98;;
58101;SDS011;52034;51.926;6.320;2023-02-15T04:19:06;50.87;;;34.10;;
58101;SDS011;52034;51.926;6.320;2023-02-15T04:20:25;49.97;;;34.30;;
58101;SDS011;52034;51.926;6.320;2023-02-15T04:21:44;57.10;;;36.03;;
58101;SDS011;52034;51.926;6.320;2023-02-15T04:23:05;53.22;;;35.03;;
58101;SDS011;52034;51.926;6.320;2023-02-15T04:24:24;56.60;;;36.17;;
58101;SDS011;52034;51.926;6.320;2023-02-15T04:25:43;61.03;;;39.30;;
58101;SDS011;52034;51.926;6.320;2023-02-15T04:26:44;61.47;;;38.70;;
58101;SDS011;52034;51.926;6.320;2023-02-15T04:27:45;62.20;;;39.20;;
58101;SDS011;52034;51.926;6.320;2023-02-15T04:28:48;68.05;;;41.13;;
58101;SDS011;52034;51.926;6.320;2023-02-15T04:29:48;63.87;;;39.70;;
58101;SDS011;52034;51.926;6.320;2023-02-15T04:30:49;62.85;;;38.72;;
58101;SDS011;52034;51.926;6.320;2023-02-15T04:31:50;58.00;;;38.53;;
58101;SDS011;52034;51.926;6.320;2023-02-15T04:32:51;63.58;;;39.25;;
58101;SDS011;52034;51.926;6.320;2023-02-15T04:33:53;63.55;;;39.95;;
58101;SDS011;52034;51.926;6.320;2023-02-15T04:34:53;54.73;;;37.17;;
58101;SDS011;52034;51.926;6.320;2023-02-15T04:35:54;60.63;;;39.30;;
58101;SDS011;52034;51.926;6.320;2023-02-15T04:36:54;64.37;;;38.97;;
58101;SDS011;52034;51.926;6.320;2023-02-15T04:37:54;61.93;;;38.27;;
58101;SDS011;52034;51.926;6.320;2023-02-15T04:38:55;63.38;;;40.08;;
58101;SDS011;52034;51.926;6.320;2023-02-15T04:39:56;72.33;;;43.03;;
58101;SDS011;52034;51.926;6.320;2023-02-15T04:40:58;69.53;;;42.33;;
58101;SDS011;52034;51.926;6.320;2023-02-15T04:41:58;78.10;;;44.43;;
58101;SDS011;52034;51.926;6.320;2023-02-15T04:42:59;71.30;;;41.43;;
58101;SDS011;52034;51.926;6.320;2023-02-15T04:43:59;66.37;;;41.00;;
58101;SDS011;52034;51.926;6.320;2023-02-15T04:45:00;76.53;;;43.30;;
58101;SDS011;52034;51.926;6.320;2023-02-15T04:46:01;57.37;;;39.50;;
58101;SDS011;52034;51.926;6.320;2023-02-15T04:47:01;83.13;;;45.47;;
58101;SDS011;52034;51.926;6.320;2023-02-15T04:48:02;66.37;;;41.63;;
58101;SDS011;52034;51.926;6.320;2023-02-15T04:49:02;69.97;;;41.33;;
58101;SDS011;52034;51.926;6.320;2023-02-15T04:50:03;62.55;;;40.03;;
58101;SDS011;52034;51.926;6.320;2023-02-15T04:51:07;65.57;;;40.45;;
58101;SDS011;52034;51.926;6.320;2023-02-15T04:52:07;82.78;;;45.30;;
58101;SDS011;52034;51.926;6.320;2023-02-15T04:53:08;63.17;;;39.07;;
58101;SDS011;52034;51.926;6.320;2023-02-15T04:54:08;62.97;;;39.83;;
58101;SDS011;52034;51.926;6.320;2023-02-15T04:55:09;71.73;;;43.23;;
58101;SDS011;52034;51.926;6.320;2023-02-15T04:56:09;76.67;;;43.60;;
58101;SDS011;52034;51.926;6.320;2023-02-15T04:57:09;67.00;;;41.20;;
58101;SDS011;52034;51.926;6.320;2023-02-15T04:58:10;67.87;;;41.00;;
58101;SDS011;52034;51.926;6.320;2023-02-15T04:59:10;68.23;;;41.53;;
58101;SDS011;52034;51.926;6.320;2023-02-15T05:00:11;75.47;;;44.03;;
58101;SDS011;52034;51.926;6.320;2023-02-15T05:01:11;63.20;;;39.77;;
58101;SDS011;52034;51.926;6.320;2023-02-15T05:02:11;67.13;;;40.20;;
58101;SDS011;52034;51.926;6.320;2023-02-15T05:03:12;77.43;;;45.37;;
58101;SDS011;52034;51.926;6.320;2023-02-15T05:04:12;65.83;;;41.20;;
58101;SDS011;52034;51.926;6.320;2023-02-15T05:05:12;63.87;;;39.47;;
58101;SDS011;52034;51.926;6.320;2023-02-15T05:06:15;60.33;;;38.75;;
58101;SDS011;52034;51.926;6.320;2023-02-15T05:07:15;55.87;;;37.87;;
58101;SDS011;52034;51.926;6.320;2023-02-15T05:08:15;64.63;;;41.10;;
58101;SDS011;52034;51.926;6.320;2023-02-15T05:09:16;66.77;;;38.70;;
58101;SDS011;52034;51.926;6.320;2023-02-15T05:10:17;61.00;;;37.70;;
58101;SDS011;52034;51.926;6.320;2023-02-15T05:11:17;53.40;;;36.40;;
58101;SDS011;52034;51.926;6.320;2023-02-15T05:12:17;74.53;;;43.27;;
58101;SDS011;52034;51.926;6.320;2023-02-15T05:13:18;73.87;;;42.80;;
58101;SDS011;52034;51.926;6.320;2023-02-15T05:14:18;69.97;;;42.53;;
58101;SDS011;52034;51.926;6.320;2023-02-15T05:15:18;62.80;;;40.20;;
58101;SDS011;52034;51.926;6.320;2023-02-15T05:16:19;59.93;;;38.50;;
58101;SDS011;52034;51.926;6.320;2023-02-15T05:17:19;65.43;;;39.10;;
58101;SDS011;52034;51.926;6.320;2023-02-15T05:18:20;58.57;;;37.63;;
58101;SDS011;52034;51.926;6.320;2023-02-15T05:19:21;60.92;;;39.63;;
58101;SDS011;52034;51.926;6.320;2023-02-15T05:20:24;58.03;;;37.55;;
58101;SDS011;52034;51.926;6.320;2023-02-15T05:21:24;64.03;;;39.63;;
58101;SDS011;52034;51.926;6.320;2023-02-15T05:22:25;62.47;;;38.77;;
58101;SDS011;52034;51.926;6.320;2023-02-15T05:23:25;57.80;;;38.50;;
58101;SDS011;52034;51.926;6.320;2023-02-15T05:24:26;68.30;;;40.60;;
58101;SDS011;52034;51.926;6.320;2023-02-15T05:25:48;63.78;;;40.08;;
58101;SDS011;52034;51.926;6.320;2023-02-15T05:27:12;72.95;;;42.67;;
58101;SDS011;52034;51.926;6.320;2023-02-15T05:28:30;67.75;;;41.03;;
58101;SDS011;52034;51.926;6.320;2023-02-15T05:29:31;64.33;;;39.87;;
58101;SDS011;52034;51.926;6.320;2023-02-15T05:30:31;67.27;;;40.20;;
58101;SDS011;52034;51.926;6.320;2023-02-15T05:31:32;64.10;;;40.13;;
58101;SDS011;52034;51.926;6.320;2023-02-15T05:32:33;67.82;;;42.00;;
58101;SDS011;52034;51.926;6.320;2023-02-15T05:33:33;66.47;;;40.23;;
58101;SDS011;52034;51.926;6.320;2023-02-15T05:34:34;66.50;;;42.03;;
58101;SDS011;52034;51.926;6.320;2023-02-15T05:35:34;65.33;;;39.43;;
58101;SDS011;52034;51.926;6.320;2023-02-15T05:36:35;62.87;;;41.33;;
58101;SDS011;52034;51.926;6.320;2023-02-15T05:37:35;64.17;;;41.33;;
58101;SDS011;52034;51.926;6.320;2023-02-15T05:38:35;63.73;;;40.33;;
58101;SDS011;52034;51.926;6.320;2023-02-15T05:39:37;65.78;;;40.42;;
58101;SDS011;52034;51.926;6.320;2023-02-15T05:40:37;96.33;;;49.03;;
58101;SDS011;52034;51.926;6.320;2023-02-15T05:41:38;62.10;;;39.83;;
58101;SDS011;52034;51.926;6.320;2023-02-15T05:42:38;67.07;;;40.33;;
58101;SDS011;52034;51.926;6.320;2023-02-15T05:43:38;60.13;;;38.50;;
58101;SDS011;52034;51.926;6.320;2023-02-15T05:44:39;63.17;;;39.37;;
58101;SDS011;52034;51.926;6.320;2023-02-15T05:45:39;62.67;;;38.33;;
58101;SDS011;52034;51.926;6.320;2023-02-15T05:46:40;65.73;;;39.73;;
58101;SDS011;52034;51.926;6.320;2023-02-15T05:47:40;61.80;;;38.27;;
58101;SDS011;52034;51.926;6.320;2023-02-15T05:48:40;61.27;;;38.53;;
58101;SDS011;52034;51.926;6.320;2023-02-15T05:49:41;66.57;;;39.00;;
58101;SDS011;52034;51.926;6.320;2023-02-15T05:50:41;74.53;;;43.43;;
58101;SDS011;52034;51.926;6.320;2023-02-15T05:51:41;64.43;;;40.50;;
58101;SDS011;52034;51.926;6.320;2023-02-15T05:52:41;61.20;;;37.93;;
58101;SDS011;52034;51.926;6.320;2023-02-15T05:53:42;58.53;;;36.77;;
58101;SDS011;52034;51.926;6.320;2023-02-15T05:54:42;67.93;;;41.17;;
58101;SDS011;52034;51.926;6.320;2023-02-15T05:55:43;59.17;;;37.70;;
58101;SDS011;52034;51.926;6.320;2023-02-15T05:56:43;54.43;;;37.07;;
58101;SDS011;52034;51.926;6.320;2023-02-15T05:57:43;58.90;;;38.93;;
58101;SDS011;52034;51.926;6.320;2023-02-15T05:58:44;61.03;;;38.77;;
58101;SDS011;52034;51.926;6.320;2023-02-15T05:59:44;61.60;;;40.57;;
58101;SDS011;52034;51.926;6.320;2023-02-15T06:00:44;61.80;;;39.53;;
58101;SDS011;52034;51.926;6.320;2023-02-15T06:01:44;65.33;;;39.00;;
58101;SDS011;52034;51.926;6.320;2023-02-15T06:02:45;62.13;;;39.37;;
58101;SDS011;52034;51.926;6.320;2023-02-15T06:03:45;65.47;;;39.53;;
58101;SDS011;52034;51.926;6.320;2023-02-15T06:04:46;84.70;;;45.57;;
58101;SDS011;52034;51.926;6.320;2023-02-15T06:05:46;77.87;;;44.17;;
58101;SDS011;52034;51.926;6.320;2023-02-15T06:06:46;75.87;;;43.87;;
58101;SDS011;52034;51.926;6.320;2023-02-15T06:07:47;77.77;;;42.57;;
58101;SDS011;52034;51.926;6.320;2023-02-15T06:08:47;81.20;;;44.27;;
58101;SDS011;52034;51.926;6.320;2023-02-15T06:09:47;65.10;;;39.00;;
58101;SDS011;52034;51.926;6.320;2023-02-15T06:10:48;78.57;;;44.60;;
58101;SDS011;52034;51.926;6.320;2023-02-15T06:11:48;75.37;;;43.07;;
58101;SDS011;52034;51.926;6.320;2023-02-15T06:12:48;68.70;;;39.83;;
58101;SDS011;52034;51.926;6.320;2023-02-15T06:13:49;59.10;;;36.63;;
58101;SDS011;52034;51.926;6.320;2023-02-15T06:14:49;58.67;;;38.13;;
58101;SDS011;52034;51.926;6.320;2023-02-15T06:15:49;65.77;;;41.10;;
58101;SDS011;52034;51.926;6.320;2023-02-15T06:16:50;63.97;;;38.90;;
58101;SDS011;52034;51.926;6.320;2023-02-15T06:17:50;62.07;;;39.53;;
58101;SDS011;52034;51.926;6.320;2023-02-15T06:18:51;63.77;;;39.83;;
58101;SDS011;52034;51.926;6.320;2023-02-15T06:19:51;66.03;;;41.13;;
58101;SDS011;52034;51.926;6.320;2023-02-15T06:20:51;65.93;;;42.00;;
58101;SDS011;52034;51.926;6.320;2023-02-15T06:21:52;64.63;;;40.63;;
58101;SDS011;52034;51.926;6.320;2023-02-15T06:22:52;64.40;;;39.17;;
58101;SDS011;52034;51.926;6.320;2023-02-15T06:23:53;64.47;;;40.73;;
58101;SDS011;52034;51.926;6.320;2023-02-15T06:24:53;65.87;;;41.00;;
58101;SDS011;52034;51.926;6.320;2023-02-15T06:25:54;69.13;;;41.72;;
58101;SDS011;52034;51.926;6.320;2023-02-15T06:26:54;74.40;;;43.37;;
58101;SDS011;52034;51.926;6.320;2023-02-15T06:27:55;70.87;;;41.30;;
58101;SDS011;52034;51.926;6.320;2023-02-15T06:28:55;71.23;;;42.00;;
58101;SDS011;52034;51.926;6.320;2023-02-15T06:29:55;80.40;;;45.37;;
58101;SDS011;52034;51.926;6.320;2023-02-15T06:30:55;69.60;;;42.73;;
58101;SDS011;52034;51.926;6.320;2023-02-15T06:31:56;84.73;;;47.10;;
58101;SDS011;52034;51.926;6.320;2023-02-15T06:32:56;83.77;;;47.00;;
58101;SDS011;52034;51.926;6.320;2023-02-15T06:33:56;77.60;;;43.23;;
58101;SDS011;52034;51.926;6.320;2023-02-15T06:35:03;90.93;;;48.22;;
58101;SDS011;52034;51.926;6.320;2023-02-15T06:36:04;69.85;;;41.90;;
58101;SDS011;52034;51.926;6.320;2023-02-15T06:37:04;97.57;;;50.83;;
58101;SDS011;52034;51.926;6.320;2023-02-15T06:38:05;81.53;;;46.67;;